createdAt,value
2018-02-22T00:00:51.792Z,91.30
2018-02-22T00:01:54.330Z,91.30
2018-02-22T00:02:56.864Z,91.30
2018-02-22T00:03:59.384Z,91.30
2018-02-22T00:05:01.945Z,91.30
2018-02-22T00:06:04.465Z,91.30
2018-02-22T00:07:06.981Z,91.40
2018-02-22T00:08:09.492Z,91.40
2018-02-22T00:09:12.053Z,91.30
2018-02-22T00:10:14.592Z,91.40
2018-02-22T00:11:17.156Z,91.40
2018-02-22T00:12:19.688Z,91.30
2018-02-22T00:13:22.979Z,91.30
2018-02-22T00:14:25.618Z,91.30
2018-02-22T00:15:28.146Z,91.20
2018-02-22T00:16:30.678Z,91.10
2018-02-22T00:17:33.198Z,91.10
2018-02-22T00:18:35.717Z,91.20
2018-02-22T00:19:38.272Z,91.20
2018-02-22T00:20:41.573Z,91.50
2018-02-22T00:21:44.094Z,91.50
2018-02-22T00:22:46.622Z,91.40
2018-02-22T00:23:49.148Z,91.30
2018-02-22T00:24:52.476Z,91.40
2018-02-22T00:25:55.012Z,91.40
2018-02-22T00:26:57.533Z,91.30
2018-02-22T00:28:00.051Z,91.30
2018-02-22T00:29:02.584Z,91.30
2018-02-22T00:30:05.924Z,91.40
2018-02-22T00:31:08.457Z,91.30
2018-02-22T00:32:10.980Z,91.30
2018-02-22T00:33:13.514Z,91.30
2018-02-22T00:34:16.040Z,91.40
2018-02-22T00:35:19.361Z,91.50
2018-02-22T00:36:21.927Z,91.50
2018-02-22T00:37:24.447Z,91.60
2018-02-22T00:38:27.737Z,91.40
2018-02-22T00:39:31.026Z,91.70
2018-02-22T00:40:34.341Z,91.70
2018-02-22T00:41:36.993Z,91.70
2018-02-22T00:42:39.517Z,91.70
2018-02-22T00:43:42.041Z,91.80
2018-02-22T00:44:44.570Z,91.90
2018-02-22T00:45:47.873Z,92.00
2018-02-22T00:46:50.440Z,92.00
2018-02-22T00:47:52.973Z,92.00
2018-02-22T00:48:55.502Z,92.10
2018-02-22T00:49:58.029Z,92.00
2018-02-22T00:51:01.317Z,91.90
2018-02-22T00:52:04.649Z,91.90
2018-02-22T00:53:07.167Z,91.80
2018-02-22T00:54:10.468Z,91.80
2018-02-22T00:55:12.998Z,91.70
2018-02-22T00:56:16.289Z,91.60
2018-02-22T00:57:19.620Z,91.60
2018-02-22T00:58:22.144Z,91.60
2018-02-22T00:59:25.434Z,91.70
2018-02-22T01:00:28.742Z,91.80
2018-02-22T01:01:31.304Z,91.70
2018-02-22T01:02:33.821Z,91.70
2018-02-22T01:03:36.385Z,91.80
2018-02-22T01:04:38.925Z,92.10
2018-02-22T01:05:41.446Z,92.00
2018-02-22T01:06:44.733Z,91.90
2018-02-22T01:07:48.017Z,91.90
2018-02-22T01:08:50.594Z,91.90
2018-02-22T01:09:53.125Z,91.90
2018-02-22T01:10:55.646Z,92.00
2018-02-22T01:11:58.256Z,92.30
2018-02-22T01:13:00.780Z,92.30
2018-02-22T01:14:03.336Z,92.20
2018-02-22T01:15:05.856Z,92.20
2018-02-22T01:16:08.380Z,92.20
2018-02-22T01:17:10.909Z,92.40
2018-02-22T01:18:14.201Z,92.40
2018-02-22T01:19:16.762Z,92.40
2018-02-22T01:20:20.080Z,92.40
2018-02-22T01:21:22.598Z,92.40
2018-02-22T01:22:25.886Z,92.50
2018-02-22T01:23:29.224Z,92.60
2018-02-22T01:24:31.764Z,92.60
2018-02-22T01:25:34.317Z,92.40
2018-02-22T01:26:36.849Z,92.20
2018-02-22T01:27:39.377Z,92.20
2018-02-22T01:28:41.900Z,92.30
2018-02-22T01:29:45.194Z,92.40
2018-02-22T01:30:48.513Z,92.50
2018-02-22T01:31:51.090Z,92.50
2018-02-22T01:32:53.613Z,92.50
2018-02-22T01:33:56.148Z,92.40
2018-02-22T01:34:58.673Z,92.40
2018-02-22T01:36:01.198Z,92.60
2018-02-22T01:37:04.520Z,92.80
2018-02-22T01:38:07.045Z,92.70
2018-02-22T01:39:10.376Z,93.00
2018-02-22T01:40:12.901Z,93.00
2018-02-22T01:41:16.196Z,93.00
2018-02-22T01:42:19.476Z,93.20
2018-02-22T01:43:22.821Z,93.40
2018-02-22T01:44:25.352Z,93.40
2018-02-22T01:45:27.887Z,93.30
2018-02-22T01:46:31.182Z,93.50
2018-02-22T01:47:33.714Z,93.20
2018-02-22T01:48:36.285Z,93.20
2018-02-22T01:49:38.817Z,93.20
2018-02-22T01:50:41.344Z,93.20
2018-02-22T01:51:44.640Z,93.10
2018-02-22T01:52:47.169Z,93.10
2018-02-22T01:53:49.744Z,93.10
2018-02-22T01:54:53.044Z,93.10
2018-02-22T01:55:56.334Z,93.00
2018-02-22T01:56:58.863Z,92.90
2018-02-22T01:58:01.381Z,92.90
2018-02-22T01:59:03.940Z,92.90
2018-02-22T02:00:06.466Z,92.90
2018-02-22T02:01:09.028Z,93.00
2018-02-22T02:02:11.561Z,92.90
2018-02-22T02:03:14.093Z,93.00
2018-02-22T02:04:17.377Z,93.00
2018-02-22T02:05:20.696Z,92.90
2018-02-22T02:06:23.230Z,92.90
2018-02-22T02:07:25.757Z,93.00
2018-02-22T02:08:28.291Z,93.00
2018-02-22T02:09:30.905Z,92.90
2018-02-22T02:10:34.198Z,92.80
2018-02-22T02:11:37.500Z,92.80
2018-02-22T02:12:40.040Z,92.80
2018-02-22T02:13:43.337Z,92.80
2018-02-22T02:14:46.668Z,92.70
2018-02-22T02:15:49.201Z,92.70
2018-02-22T02:16:51.739Z,92.70
2018-02-22T02:17:54.308Z,92.70
2018-02-22T02:18:57.614Z,92.30
2018-02-22T02:20:00.212Z,92.20
2018-02-22T02:21:02.782Z,92.30
2018-02-22T02:22:05.280Z,92.30
2018-02-22T02:23:07.815Z,92.20
2018-02-22T02:24:10.338Z,92.20
2018-02-22T02:25:13.665Z,92.30
2018-02-22T02:26:16.197Z,92.20
2018-02-22T02:27:18.734Z,92.30
2018-02-22T02:28:21.260Z,92.20
2018-02-22T02:29:23.822Z,92.30
2018-02-22T02:30:26.369Z,92.30
2018-02-22T02:31:28.901Z,92.40
2018-02-22T02:32:31.591Z,92.50
2018-02-22T02:33:34.907Z,92.50
2018-02-22T02:34:37.462Z,92.50
2018-02-22T02:35:39.996Z,92.40
2018-02-22T02:36:43.291Z,92.80
2018-02-22T02:37:45.816Z,92.80
2018-02-22T02:38:48.363Z,92.90
2018-02-22T02:39:50.926Z,92.80
2018-02-22T02:40:53.467Z,92.90
2018-02-22T02:41:55.993Z,92.90
2018-02-22T02:42:58.518Z,92.80
2018-02-22T02:44:01.178Z,92.80
2018-02-22T02:45:03.746Z,92.90
2018-02-22T02:46:06.273Z,92.80
2018-02-22T02:47:09.570Z,92.70
2018-02-22T02:48:12.870Z,92.70
2018-02-22T02:49:15.409Z,92.70
2018-02-22T02:50:18.741Z,92.90
2018-02-22T02:51:21.270Z,92.90
2018-02-22T02:52:24.596Z,92.80
2018-02-22T02:53:27.148Z,92.80
2018-02-22T02:54:29.675Z,92.70
2018-02-22T02:55:32.969Z,92.80
2018-02-22T02:56:36.281Z,92.70
2018-02-22T02:57:38.855Z,92.70
2018-02-22T02:58:41.383Z,92.50
2018-02-22T02:59:44.675Z,92.90
2018-02-22T03:00:47.961Z,93.00
2018-02-22T03:01:51.262Z,93.10
2018-02-22T03:02:53.833Z,93.10
2018-02-22T03:03:56.349Z,93.10
2018-02-22T03:04:58.880Z,93.10
2018-02-22T03:06:01.449Z,93.30
2018-02-22T03:07:03.965Z,93.30
2018-02-22T03:08:07.301Z,93.30
2018-02-22T03:09:09.837Z,93.30
2018-02-22T03:10:12.360Z,93.20
2018-02-22T03:11:14.893Z,93.20
2018-02-22T03:12:17.425Z,93.10
2018-02-22T03:13:20.733Z,93.20
2018-02-22T03:14:23.264Z,93.20
2018-02-22T03:15:26.561Z,93.30
2018-02-22T03:16:29.858Z,93.20
2018-02-22T03:17:32.389Z,93.20
2018-02-22T03:18:34.968Z,93.10
2018-02-22T03:19:38.261Z,92.90
2018-02-22T03:20:41.563Z,93.00
2018-02-22T03:21:44.089Z,93.00
2018-02-22T03:22:46.612Z,92.90
2018-02-22T03:23:49.176Z,92.80
2018-02-22T03:24:51.729Z,92.90
2018-02-22T03:25:54.256Z,93.00
2018-02-22T03:26:56.785Z,93.10
2018-02-22T03:27:59.323Z,93.00
2018-02-22T03:29:01.910Z,92.90
2018-02-22T03:30:04.501Z,93.00
2018-02-22T03:31:07.030Z,93.00
2018-02-22T03:32:09.565Z,93.00
2018-02-22T03:33:12.858Z,93.20
2018-02-22T03:34:16.188Z,93.30
2018-02-22T03:35:18.707Z,93.30
2018-02-22T03:36:22.030Z,93.30
2018-02-22T03:37:24.557Z,93.30
2018-02-22T03:38:27.842Z,93.40
2018-02-22T03:39:31.132Z,93.60
2018-02-22T03:40:33.656Z,93.60
2018-02-22T03:41:36.238Z,93.70
2018-02-22T03:42:38.762Z,95.00
2018-02-22T03:43:41.297Z,93.90
2018-02-22T03:44:43.838Z,93.50
2018-02-22T03:45:46.353Z,93.30
2018-02-22T03:46:48.928Z,93.30
2018-02-22T03:47:51.458Z,93.30
2018-02-22T03:48:54.754Z,93.40
2018-02-22T03:49:57.281Z,93.30
2018-02-22T03:50:59.805Z,93.20
2018-02-22T03:52:02.372Z,93.40
2018-02-22T03:53:04.896Z,93.50
2018-02-22T03:54:08.180Z,93.40
2018-02-22T03:55:11.472Z,93.20
2018-02-22T03:56:14.773Z,93.10
2018-02-22T03:57:17.338Z,93.10
2018-02-22T03:58:19.870Z,92.90
2018-02-22T03:59:22.402Z,92.80
2018-02-22T04:00:24.920Z,92.80
2018-02-22T04:01:28.208Z,92.90
2018-02-22T04:02:30.776Z,92.90
2018-02-22T04:03:33.304Z,93.00
2018-02-22T04:04:35.874Z,92.90
2018-02-22T04:05:38.394Z,93.00
2018-02-22T04:06:40.928Z,93.10
2018-02-22T04:07:44.254Z,93.10
2018-02-22T04:08:46.894Z,93.10
2018-02-22T04:09:49.421Z,93.30
2018-02-22T04:10:51.947Z,93.20
2018-02-22T04:11:54.469Z,93.10
2018-02-22T04:12:57.002Z,93.10
2018-02-22T04:13:59.569Z,93.10
2018-02-22T04:15:02.103Z,92.90
2018-02-22T04:16:04.644Z,92.90
2018-02-22T04:17:07.925Z,92.80
2018-02-22T04:18:11.221Z,92.80
2018-02-22T04:19:14.539Z,92.80
2018-02-22T04:20:17.106Z,92.80
2018-02-22T04:21:19.620Z,92.70
2018-02-22T04:22:23.176Z,93.10
2018-02-22T04:23:26.536Z,92.80
2018-02-22T04:24:29.070Z,92.80
2018-02-22T04:25:32.393Z,92.90
2018-02-22T04:26:34.921Z,92.90
2018-02-22T04:27:38.206Z,93.10
2018-02-22T04:28:41.500Z,93.10
2018-02-22T04:29:44.085Z,93.00
2018-02-22T04:30:46.617Z,93.20
2018-02-22T04:31:49.940Z,93.50
2018-02-22T04:32:52.489Z,93.50
2018-02-22T04:33:55.014Z,93.40
2018-02-22T04:34:57.569Z,93.60
2018-02-22T04:36:00.089Z,93.20
2018-02-22T04:37:02.606Z,93.10
2018-02-22T04:38:05.125Z,93.00
2018-02-22T04:39:07.650Z,93.30
2018-02-22T04:40:10.222Z,93.50
2018-02-22T04:41:12.752Z,93.70
2018-02-22T04:42:15.311Z,93.80
2018-02-22T04:43:17.846Z,93.80
2018-02-22T04:44:20.369Z,93.80
2018-02-22T04:45:22.929Z,93.80
2018-02-22T04:46:25.886Z,93.80
2018-02-22T04:47:28.431Z,93.90
2018-02-22T04:48:30.961Z,94.20
2018-02-22T04:49:33.492Z,94.40
2018-02-22T04:50:36.057Z,94.40
2018-02-22T04:51:38.576Z,94.40
2018-02-22T04:52:41.885Z,94.60
2018-02-22T04:53:44.405Z,94.50
2018-02-22T04:54:46.934Z,94.70
2018-02-22T04:55:49.510Z,94.70
2018-02-22T04:56:52.032Z,94.60
2018-02-22T04:57:54.561Z,94.50
2018-02-22T04:58:57.096Z,94.50
2018-02-22T04:59:59.643Z,94.40
2018-02-22T05:01:02.203Z,94.40
2018-02-22T05:02:04.739Z,94.40
2018-02-22T05:03:08.038Z,94.40
2018-02-22T05:04:11.333Z,94.00
2018-02-22T05:05:13.874Z,94.00
2018-02-22T05:06:17.201Z,93.90
2018-02-22T05:07:19.733Z,93.90
2018-02-22T05:08:23.061Z,93.60
2018-02-22T05:09:25.586Z,93.60
2018-02-22T05:10:28.878Z,93.60
2018-02-22T05:11:31.454Z,93.60
2018-02-22T05:12:34.045Z,93.60
2018-02-22T05:13:36.577Z,93.60
2018-02-22T05:14:39.116Z,93.70
2018-02-22T05:15:41.632Z,93.80
2018-02-22T05:16:44.194Z,93.90
2018-02-22T05:17:46.775Z,93.90
2018-02-22T05:18:49.377Z,93.90
2018-02-22T05:19:51.901Z,93.90
2018-02-22T05:20:54.432Z,93.90
2018-02-22T05:21:57.716Z,93.90
2018-02-22T05:23:01.037Z,93.80
2018-02-22T05:24:03.559Z,93.80
2018-02-22T05:25:06.089Z,93.70
2018-02-22T05:26:08.650Z,93.90
2018-02-22T05:27:11.215Z,93.60
2018-02-22T05:28:13.711Z,93.60
2018-02-22T05:29:16.274Z,93.60
2018-02-22T05:30:18.797Z,93.70
2018-02-22T05:31:21.321Z,93.50
2018-02-22T05:32:23.847Z,93.50
2018-02-22T05:33:26.378Z,93.50
2018-02-22T05:34:28.948Z,93.60
2018-02-22T05:35:31.478Z,93.50
2018-02-22T05:36:34.015Z,93.40
2018-02-22T05:37:36.567Z,93.30
2018-02-22T05:38:39.089Z,93.30
2018-02-22T05:39:42.400Z,93.50
2018-02-22T05:40:44.921Z,93.40
2018-02-22T05:41:47.493Z,93.50
2018-02-22T05:42:50.013Z,93.40
2018-02-22T05:43:52.545Z,93.30
2018-02-22T05:44:55.837Z,93.60
2018-02-22T05:45:58.425Z,93.30
2018-02-22T05:47:00.979Z,93.30
2018-02-22T05:48:03.513Z,93.40
2018-02-22T05:49:06.043Z,93.20
2018-02-22T05:50:08.567Z,93.10
2018-02-22T05:51:11.897Z,93.30
2018-02-22T05:52:14.425Z,93.20
2018-02-22T05:53:16.988Z,93.30
2018-02-22T05:54:19.516Z,93.30
2018-02-22T05:55:22.037Z,93.30
2018-02-22T05:56:24.918Z,93.20
2018-02-22T05:57:27.452Z,93.10
2018-02-22T05:58:30.773Z,93.20
2018-02-22T05:59:33.306Z,93.50
2018-02-22T06:00:36.627Z,93.20
2018-02-22T06:01:39.157Z,93.20
2018-02-22T06:02:42.505Z,93.20
2018-02-22T06:03:45.030Z,93.20
2018-02-22T06:04:47.561Z,93.40
2018-02-22T06:05:50.877Z,93.80
2018-02-22T06:06:53.400Z,93.80
2018-02-22T06:07:55.958Z,94.00
2018-02-22T06:08:58.534Z,94.00
2018-02-22T06:10:01.057Z,94.00
2018-02-22T06:11:03.590Z,93.80
2018-02-22T06:12:06.142Z,93.70
2018-02-22T06:13:09.439Z,94.00
2018-02-22T06:14:12.760Z,93.90
2018-02-22T06:15:15.291Z,93.90
2018-02-22T06:16:18.590Z,94.00
2018-02-22T06:17:21.116Z,94.00
2018-02-22T06:18:23.658Z,93.80
2018-02-22T06:19:26.220Z,93.80
2018-02-22T06:20:28.766Z,93.90
2018-02-22T06:21:31.428Z,93.80
2018-02-22T06:22:33.949Z,93.70
2018-02-22T06:23:36.471Z,93.60
2018-02-22T06:24:38.996Z,93.50
2018-02-22T06:25:41.564Z,93.50
2018-02-22T06:26:44.858Z,93.50
2018-02-22T06:27:47.377Z,93.50
2018-02-22T06:28:49.909Z,93.60
2018-02-22T06:29:52.447Z,93.60
2018-02-22T06:30:55.786Z,93.50
2018-02-22T06:31:59.093Z,93.40
2018-02-22T06:33:01.619Z,93.40
2018-02-22T06:34:04.150Z,93.40
2018-02-22T06:35:07.442Z,94.20
2018-02-22T06:36:11.000Z,94.10
2018-02-22T06:37:13.568Z,94.30
2018-02-22T06:38:16.100Z,94.20
2018-02-22T06:39:18.628Z,94.30
2018-02-22T06:40:21.154Z,94.20
2018-02-22T06:41:23.690Z,94.20
2018-02-22T06:42:26.254Z,94.30
2018-02-22T06:43:28.786Z,94.30
2018-02-22T06:44:32.079Z,94.10
2018-02-22T06:45:34.614Z,94.10
2018-02-22T06:46:37.139Z,94.20
2018-02-22T06:47:39.705Z,94.20
2018-02-22T06:48:42.234Z,94.20
2018-02-22T06:49:45.532Z,94.00
2018-02-22T06:50:48.061Z,94.00
2018-02-22T06:51:50.594Z,94.00
2018-02-22T06:52:53.163Z,94.00
2018-02-22T06:53:55.699Z,94.00
2018-02-22T06:54:58.221Z,94.10
2018-02-22T06:56:00.749Z,94.10
2018-02-22T06:57:03.273Z,94.10
2018-02-22T06:58:06.598Z,94.10
2018-02-22T06:59:09.137Z,94.00
2018-02-22T07:00:12.434Z,94.20
2018-02-22T07:01:14.967Z,94.10
2018-02-22T07:02:17.494Z,94.10
2018-02-22T07:03:20.054Z,94.00
2018-02-22T07:04:22.580Z,94.10
2018-02-22T07:05:25.873Z,94.10
2018-02-22T07:06:28.439Z,94.10
2018-02-22T07:07:31.730Z,93.90
2018-02-22T07:08:34.253Z,93.90
2018-02-22T07:09:36.793Z,93.80
2018-02-22T07:10:39.373Z,93.70
2018-02-22T07:11:41.918Z,93.60
2018-02-22T07:12:44.445Z,93.60
2018-02-22T07:13:47.768Z,93.60
2018-02-22T07:14:50.295Z,93.60
2018-02-22T07:15:53.641Z,93.50
2018-02-22T07:16:56.182Z,93.50
2018-02-22T07:17:59.479Z,93.30
2018-02-22T07:19:02.053Z,93.30
2018-02-22T07:20:05.341Z,93.60
2018-02-22T07:21:07.864Z,93.60
2018-02-22T07:22:10.393Z,93.80
2018-02-22T07:23:16.790Z,93.90
2018-02-22T07:24:15.520Z,94.00
2018-02-22T07:25:18.057Z,94.10
2018-02-22T07:26:20.636Z,94.10
2018-02-22T07:27:23.152Z,94.20
2018-02-22T07:28:26.461Z,94.00
2018-02-22T07:29:28.998Z,94.00
2018-02-22T07:30:32.295Z,94.00
2018-02-22T07:31:34.861Z,94.00
2018-02-22T07:32:37.394Z,93.90
2018-02-22T07:33:39.925Z,93.70
2018-02-22T07:34:43.218Z,93.80
2018-02-22T07:35:45.745Z,93.80
2018-02-22T07:36:48.316Z,93.80
2018-02-22T07:37:50.847Z,94.00
2018-02-22T07:38:53.417Z,94.20
2018-02-22T07:39:56.719Z,94.60
2018-02-22T07:41:00.012Z,94.50
2018-02-22T07:42:02.528Z,94.40
2018-02-22T07:43:05.097Z,94.50
2018-02-22T07:44:07.648Z,94.50
2018-02-22T07:45:10.185Z,94.50
2018-02-22T07:46:12.713Z,94.40
2018-02-22T07:47:15.251Z,94.30
2018-02-22T07:48:17.798Z,94.20
2018-02-22T07:49:20.358Z,94.00
2018-02-22T07:50:22.884Z,94.00
2018-02-22T07:51:26.193Z,94.00
2018-02-22T07:52:28.723Z,94.00
2018-02-22T07:53:31.241Z,94.20
2018-02-22T07:54:33.804Z,94.40
2018-02-22T07:55:36.355Z,94.50
2018-02-22T07:56:38.929Z,94.70
2018-02-22T07:57:41.445Z,95.00
2018-02-22T07:58:43.972Z,95.10
2018-02-22T07:59:46.493Z,95.30
2018-02-22T08:00:49.029Z,95.50
2018-02-22T08:01:52.374Z,95.60
2018-02-22T08:02:54.898Z,95.60
2018-02-22T08:03:57.422Z,95.70
2018-02-22T08:04:59.994Z,95.70
2018-02-22T08:06:02.515Z,95.80
2018-02-22T08:07:05.838Z,95.90
2018-02-22T08:08:08.421Z,95.90
2018-02-22T08:09:10.913Z,96.00
2018-02-22T08:10:13.437Z,95.90
2018-02-22T08:11:16.014Z,95.90
2018-02-22T08:12:18.684Z,96.00
2018-02-22T08:13:21.212Z,96.00
2018-02-22T08:14:24.508Z,96.00
2018-02-22T08:15:27.034Z,96.00
2018-02-22T08:16:29.594Z,96.00
2018-02-22T08:17:32.174Z,96.00
2018-02-22T08:18:34.702Z,96.10
2018-02-22T08:19:37.234Z,96.10
2018-02-22T08:20:39.770Z,96.00
2018-02-22T08:21:42.297Z,96.00
2018-02-22T08:22:44.905Z,96.00
2018-02-22T08:23:47.513Z,95.90
2018-02-22T08:24:50.047Z,96.00
2018-02-22T08:25:53.344Z,95.90
2018-02-22T08:26:56.915Z,95.90
2018-02-22T08:28:00.245Z,95.90
2018-02-22T08:29:02.787Z,95.90
2018-02-22T08:30:06.096Z,95.80
2018-02-22T08:31:08.617Z,95.80
2018-02-22T08:32:11.158Z,95.70
2018-02-22T08:33:13.722Z,95.70
2018-02-22T08:34:16.249Z,95.70
2018-02-22T08:35:18.776Z,95.70
2018-02-22T08:36:21.402Z,95.70
2018-02-22T08:37:23.929Z,95.40
2018-02-22T08:38:27.220Z,95.30
2018-02-22T08:39:30.005Z,95.30
2018-02-22T08:40:32.558Z,95.30
2018-02-22T08:41:35.095Z,95.20
2018-02-22T08:42:37.624Z,95.20
2018-02-22T08:43:40.157Z,95.00
2018-02-22T08:44:42.717Z,94.80
2018-02-22T08:45:46.019Z,94.70
2018-02-22T08:46:48.550Z,94.80
2018-02-22T08:47:51.075Z,94.80
2018-02-22T08:48:53.597Z,94.70
2018-02-22T08:49:56.926Z,94.70
2018-02-22T08:50:59.679Z,94.70
2018-02-22T08:52:02.243Z,94.50
2018-02-22T08:53:04.765Z,94.50
2018-02-22T08:54:07.289Z,94.50
2018-02-22T08:55:09.814Z,94.50
2018-02-22T08:56:13.146Z,94.80
2018-02-22T08:57:15.673Z,94.70
2018-02-22T08:58:18.205Z,94.60
2018-02-22T08:59:21.517Z,94.30
2018-02-22T09:00:24.062Z,94.30
2018-02-22T09:01:26.620Z,94.20
2018-02-22T09:02:29.185Z,94.10
2018-02-22T09:03:31.709Z,94.00
2018-02-22T09:04:34.238Z,93.90
2018-02-22T09:05:37.572Z,93.40
2018-02-22T09:06:40.122Z,93.40
2018-02-22T09:07:42.650Z,93.20
2018-02-22T09:08:45.358Z,93.40
2018-02-22T09:09:48.756Z,93.40
2018-02-22T09:10:51.280Z,93.40
2018-02-22T09:11:54.614Z,93.00
2018-02-22T09:12:57.138Z,93.00
2018-02-22T09:14:00.423Z,92.80
2018-02-22T09:15:03.720Z,92.90
2018-02-22T09:16:06.249Z,92.90
2018-02-22T09:17:08.809Z,92.70
2018-02-22T09:18:11.329Z,92.80
2018-02-22T09:19:13.848Z,92.90
2018-02-22T09:20:16.406Z,92.90
2018-02-22T09:21:18.917Z,92.70
2018-02-22T09:22:21.442Z,92.80
2018-02-22T09:23:24.000Z,92.50
2018-02-22T09:24:26.529Z,92.40
2018-02-22T09:25:29.051Z,92.60
2018-02-22T09:26:31.573Z,92.10
2018-02-22T09:27:34.125Z,91.80
2018-02-22T09:28:36.645Z,91.60
2018-02-22T09:29:39.199Z,91.70
2018-02-22T09:30:41.725Z,91.80
2018-02-22T09:31:44.254Z,91.50
2018-02-22T09:32:47.541Z,91.30
2018-02-22T09:33:50.829Z,91.30
2018-02-22T09:34:54.145Z,91.20
2018-02-22T09:35:56.678Z,91.10
2018-02-22T09:36:59.985Z,88.10
2018-02-22T09:38:02.510Z,87.40
2018-02-22T09:39:05.033Z,87.50
2018-02-22T09:40:07.588Z,86.80
2018-02-22T09:41:10.113Z,85.90
2018-02-22T09:42:12.628Z,85.30
2018-02-22T09:43:15.151Z,84.50
2018-02-22T09:44:18.438Z,84.30
2018-02-22T09:45:21.769Z,84.00
2018-02-22T09:46:24.285Z,83.80
2018-02-22T09:47:27.570Z,82.10
2018-02-22T09:48:30.891Z,79.30
2018-02-22T09:49:33.417Z,79.20
2018-02-22T09:50:35.965Z,76.70
2018-02-22T09:51:38.477Z,74.40
2018-02-22T09:52:40.998Z,72.50
2018-02-22T09:53:43.521Z,71.70
2018-02-22T09:54:46.041Z,71.60
2018-02-22T09:55:48.597Z,71.10
2018-02-22T09:56:51.123Z,71.70
2018-02-22T09:57:53.648Z,70.20
2018-02-22T09:58:57.009Z,71.80
2018-02-22T09:59:59.529Z,71.80
2018-02-22T10:01:02.096Z,72.80
2018-02-22T10:02:04.609Z,72.20
2018-02-22T10:03:07.126Z,71.00
2018-02-22T10:04:09.676Z,72.00
2018-02-22T10:05:12.969Z,73.40
2018-02-22T10:06:15.504Z,73.40
2018-02-22T10:07:18.061Z,72.80
2018-02-22T10:08:20.581Z,72.20
2018-02-22T10:09:23.160Z,72.40
2018-02-22T10:10:25.700Z,71.60
2018-02-22T10:11:28.217Z,72.30
2018-02-22T10:12:30.738Z,72.50
2018-02-22T10:13:33.253Z,74.10
2018-02-22T10:14:35.806Z,74.80
2018-02-22T10:15:38.321Z,73.00
2018-02-22T10:16:41.609Z,68.70
2018-02-22T10:17:44.133Z,68.70
2018-02-22T10:18:46.648Z,66.10
2018-02-22T10:19:49.208Z,62.80
2018-02-22T10:20:51.721Z,61.60
2018-02-22T10:21:54.236Z,58.30
2018-02-22T10:22:57.565Z,58.70
2018-02-22T10:24:00.057Z,58.70
2018-02-22T10:25:02.626Z,58.70
2018-02-22T10:26:05.155Z,57.50
2018-02-22T10:27:07.750Z,57.60
2018-02-22T10:28:10.267Z,55.50
2018-02-22T10:29:12.788Z,55.00
2018-02-22T10:30:15.352Z,54.80
2018-02-22T10:31:17.878Z,53.90
2018-02-22T10:32:20.405Z,54.20
2018-02-22T10:33:23.696Z,50.90
2018-02-22T10:34:27.126Z,49.50
2018-02-22T10:35:29.681Z,49.40
2018-02-22T10:36:32.199Z,49.80
2018-02-22T10:37:35.526Z,50.90
2018-02-22T10:38:38.046Z,50.50
2018-02-22T10:39:40.578Z,47.60
2018-02-22T10:40:43.096Z,49.90
2018-02-22T10:41:46.378Z,51.90
2018-02-22T10:42:49.695Z,51.70
2018-02-22T10:43:52.217Z,51.70
2018-02-22T10:44:55.557Z,49.30
2018-02-22T10:45:58.080Z,48.60
2018-02-22T10:47:01.366Z,45.00
2018-02-22T10:48:04.653Z,43.30
2018-02-22T10:49:07.185Z,43.30
2018-02-22T10:50:09.730Z,42.80
2018-02-22T10:51:12.258Z,43.70
2018-02-22T10:52:14.811Z,43.10
2018-02-22T10:53:18.095Z,45.80
2018-02-22T10:54:21.369Z,47.10
2018-02-22T10:55:24.683Z,48.00
2018-02-22T10:56:27.197Z,48.00
2018-02-22T10:57:29.755Z,45.90
2018-02-22T10:58:32.283Z,48.20
2018-02-22T10:59:34.802Z,46.50
2018-02-22T11:00:43.032Z,45.20
2018-02-22T11:01:51.929Z,45.60
2018-02-22T11:02:55.217Z,47.10
2018-02-22T11:03:58.496Z,49.10
2018-02-22T11:05:01.080Z,49.20
2018-02-22T11:06:03.613Z,47.90
2018-02-22T11:07:06.164Z,48.10
2018-02-22T11:08:08.725Z,48.40
2018-02-22T11:09:11.241Z,49.50
2018-02-22T11:10:14.577Z,52.40
2018-02-22T11:11:17.094Z,52.40
2018-02-22T11:12:20.377Z,51.60
2018-02-22T11:13:23.666Z,52.50
2018-02-22T11:14:26.189Z,52.50
2018-02-22T11:15:28.742Z,50.40
2018-02-22T11:16:31.268Z,49.30
2018-02-22T11:17:33.790Z,47.70
2018-02-22T11:18:36.317Z,47.80
2018-02-22T11:19:38.835Z,46.70
2018-02-22T11:20:41.401Z,46.90
2018-02-22T11:21:43.926Z,48.90
2018-02-22T11:22:46.459Z,50.90
2018-02-22T11:23:49.746Z,53.70
2018-02-22T11:24:52.279Z,53.70
2018-02-22T11:25:54.847Z,53.80
2018-02-22T11:26:57.398Z,53.40
2018-02-22T11:27:59.946Z,53.50
2018-02-22T11:29:02.465Z,52.20
2018-02-22T11:30:05.756Z,53.70
2018-02-22T11:31:09.074Z,53.10
2018-02-22T11:32:11.601Z,53.30
2018-02-22T11:33:14.925Z,56.10
2018-02-22T11:34:17.461Z,56.20
2018-02-22T11:35:19.981Z,57.60
2018-02-22T11:36:22.505Z,58.10
2018-02-22T11:37:25.030Z,58.30
2018-02-22T11:38:27.600Z,59.20
2018-02-22T11:39:30.126Z,59.60
2018-02-22T11:40:32.659Z,60.50
2018-02-22T11:41:35.185Z,61.10
2018-02-22T11:42:37.697Z,61.40
2018-02-22T11:43:40.266Z,60.80
2018-02-22T11:44:42.789Z,59.20
2018-02-22T11:45:45.323Z,59.60
2018-02-22T11:46:47.861Z,59.00
2018-02-22T11:47:50.390Z,59.40
2018-02-22T11:48:52.958Z,59.30
2018-02-22T11:49:55.489Z,58.30
2018-02-22T11:50:58.008Z,58.60
2018-02-22T11:52:01.294Z,59.80
2018-02-22T11:53:04.577Z,60.10
2018-02-22T11:54:07.919Z,60.10
2018-02-22T11:55:10.448Z,60.10
2018-02-22T11:56:12.970Z,59.50
2018-02-22T11:57:15.484Z,59.60
2018-02-22T11:58:18.034Z,58.80
2018-02-22T11:59:20.593Z,57.40
2018-02-22T12:00:23.888Z,57.00
2018-02-22T12:01:26.409Z,57.00
2018-02-22T12:02:28.934Z,55.80
2018-02-22T12:03:31.498Z,56.40
2018-02-22T12:04:34.025Z,56.70
2018-02-22T12:05:36.540Z,56.60
2018-02-22T12:06:39.061Z,56.10
2018-02-22T12:07:42.353Z,56.10
2018-02-22T12:08:45.678Z,56.30
2018-02-22T12:09:48.196Z,56.30
2018-02-22T12:10:51.489Z,56.60
2018-02-22T12:11:54.014Z,56.60
2018-02-22T12:12:56.545Z,56.90
2018-02-22T12:13:59.102Z,56.10
2018-02-22T12:15:01.627Z,56.00
2018-02-22T12:16:04.156Z,55.90
2018-02-22T12:17:06.681Z,56.80
2018-02-22T12:18:09.987Z,54.80
2018-02-22T12:19:12.556Z,54.70
2018-02-22T12:20:15.076Z,53.60
2018-02-22T12:21:17.594Z,51.40
2018-02-22T12:22:20.110Z,50.00
2018-02-22T12:23:22.628Z,48.90
2018-02-22T12:24:25.176Z,48.40
2018-02-22T12:25:27.698Z,47.20
2018-02-22T12:26:30.247Z,46.00
2018-02-22T12:27:32.764Z,45.10
2018-02-22T12:28:36.049Z,44.20
2018-02-22T12:29:39.333Z,43.50
2018-02-22T12:30:42.613Z,45.60
2018-02-22T12:31:45.932Z,44.80
2018-02-22T12:32:48.453Z,44.40
2018-02-22T12:33:51.743Z,45.50
2018-02-22T12:34:55.035Z,44.60
2018-02-22T12:35:57.565Z,44.60
2018-02-22T12:37:00.137Z,44.30
2018-02-22T12:38:02.663Z,43.60
2018-02-22T12:39:05.241Z,43.60
2018-02-22T12:40:07.769Z,44.20
2018-02-22T12:41:10.298Z,44.20
2018-02-22T12:42:12.847Z,45.50
2018-02-22T12:43:15.436Z,46.40
2018-02-22T12:44:17.953Z,47.20
2018-02-22T12:45:20.473Z,46.50
2018-02-22T12:46:23.026Z,46.00
2018-02-22T12:47:25.553Z,47.00
2018-02-22T12:48:28.070Z,46.40
2018-02-22T12:49:30.622Z,45.80
2018-02-22T12:50:33.132Z,47.20
2018-02-22T12:51:35.651Z,47.60
2018-02-22T12:52:38.178Z,49.20
2018-02-22T12:53:40.700Z,48.40
2018-02-22T12:54:43.248Z,50.20
2018-02-22T12:55:45.769Z,51.10
2018-02-22T12:56:48.291Z,52.00
2018-02-22T12:57:50.850Z,53.30
2018-02-22T12:58:53.380Z,53.10
2018-02-22T12:59:55.898Z,52.60
2018-02-22T13:00:58.598Z,53.20
2018-02-22T13:02:01.157Z,52.40
2018-02-22T13:03:03.686Z,52.60
2018-02-22T13:04:06.211Z,49.90
2018-02-22T13:05:08.731Z,50.50
2018-02-22T13:06:11.290Z,53.00
2018-02-22T13:07:13.801Z,51.00
2018-02-22T13:08:16.326Z,49.10
2018-02-22T13:09:18.842Z,49.20
2018-02-22T13:10:21.368Z,49.20
2018-02-22T13:11:24.688Z,47.10
2018-02-22T13:12:27.212Z,46.70
2018-02-22T13:13:29.730Z,46.30
2018-02-22T13:14:32.249Z,45.40
2018-02-22T13:15:35.535Z,45.40
2018-02-22T13:16:38.854Z,45.80
2018-02-22T13:17:41.370Z,45.70
2018-02-22T13:18:43.890Z,45.70
2018-02-22T13:19:46.427Z,46.90
2018-02-22T13:20:49.746Z,47.20
2018-02-22T13:21:52.258Z,47.20
2018-02-22T13:22:54.777Z,47.00
2018-02-22T13:23:57.330Z,47.50
2018-02-22T13:24:59.861Z,47.90
2018-02-22T13:26:02.401Z,47.70
2018-02-22T13:27:04.951Z,48.30
2018-02-22T13:28:07.473Z,49.20